createdAt,value
2019-03-03T00:01:18.899Z,3.93
2019-03-03T00:03:46.912Z,5.80
2019-03-03T00:06:14.823Z,2.23
2019-03-03T00:08:42.794Z,3.50
2019-03-03T00:11:10.773Z,5.23
2019-03-03T00:13:38.782Z,5.47
2019-03-03T00:16:06.782Z,5.03
2019-03-03T00:18:36.157Z,3.37
2019-03-03T00:21:04.091Z,4.57
2019-03-03T00:23:32.097Z,5.83
2019-03-03T00:26:00.099Z,4.00
2019-03-03T00:28:28.113Z,3.70
2019-03-03T00:30:56.085Z,4.27
2019-03-03T00:33:23.999Z,4.73
2019-03-03T00:35:51.996Z,2.47
2019-03-03T00:38:37.636Z,2.73
2019-03-03T00:41:32.558Z,2.93
2019-03-03T00:44:15.964Z,2.70
2019-03-03T00:47:05.732Z,2.90
2019-03-03T00:50:01.590Z,3.73
2019-03-03T00:52:51.504Z,5.40
2019-03-03T00:55:38.446Z,7.43
2019-03-03T00:58:14.832Z,1.67
2019-03-03T01:00:56.119Z,4.50
2019-03-03T01:03:44.344Z,3.27
2019-03-03T01:06:31.328Z,4.90
2019-03-03T01:09:17.945Z,4.93
2019-03-03T01:12:01.518Z,2.20
2019-03-03T01:15:00.584Z,3.30
2019-03-03T01:17:38.361Z,2.53
2019-03-03T01:20:10.536Z,4.33
2019-03-03T01:22:50.296Z,3.13
2019-03-03T01:25:18.220Z,2.90
2019-03-03T01:27:46.187Z,2.53
2019-03-03T01:30:14.289Z,3.43
2019-03-03T01:32:42.371Z,6.77
2019-03-03T01:35:10.442Z,4.70
2019-03-03T01:37:38.387Z,4.63
2019-03-03T01:40:06.836Z,3.27
2019-03-03T01:42:34.897Z,2.80
2019-03-03T01:45:02.869Z,3.40
2019-03-03T01:47:30.875Z,5.80
2019-03-03T01:49:58.812Z,3.30
2019-03-03T01:52:26.852Z,2.20
2019-03-03T01:54:54.873Z,3.23
2019-03-03T01:57:22.800Z,5.10
2019-03-03T01:59:50.712Z,3.57
2019-03-03T02:02:18.677Z,4.77
2019-03-03T02:04:46.693Z,5.43
2019-03-03T02:07:14.691Z,2.47
2019-03-03T02:09:42.641Z,3.77
2019-03-03T02:12:10.862Z,3.50
2019-03-03T02:14:38.892Z,4.33
2019-03-03T02:17:07.385Z,3.33
2019-03-03T02:19:35.443Z,7.50
2019-03-03T02:22:04.705Z,2.10
2019-03-03T02:24:32.675Z,6.83
2019-03-03T02:27:00.596Z,5.10
2019-03-03T02:29:28.574Z,4.70
2019-03-03T02:31:56.499Z,4.70
2019-03-03T02:34:24.486Z,5.40
2019-03-03T02:36:52.472Z,6.93
2019-03-03T02:39:20.371Z,5.37
2019-03-03T02:41:48.385Z,3.40
2019-03-03T02:44:16.385Z,2.23
2019-03-03T02:46:44.378Z,4.33
2019-03-03T02:49:12.385Z,4.17
2019-03-03T02:51:40.434Z,5.70
2019-03-03T02:54:08.422Z,4.53
2019-03-03T02:56:36.427Z,4.93
2019-03-03T02:59:04.478Z,4.90
2019-03-03T03:01:48.964Z,3.90
2019-03-03T03:04:16.973Z,1.73
2019-03-03T03:07:18.832Z,4.47
2019-03-03T03:10:20.694Z,4.77
2019-03-03T03:13:16.548Z,5.43
2019-03-03T03:16:01.017Z,4.80
2019-03-03T03:18:56.795Z,2.13
2019-03-03T03:21:46.597Z,1.83
2019-03-03T03:24:30.925Z,1.70
2019-03-03T03:27:15.105Z,1.20
2019-03-03T03:30:02.061Z,1.60
2019-03-03T03:32:54.860Z,1.33
2019-03-03T03:35:28.171Z,0.70
2019-03-03T03:38:10.904Z,3.13
2019-03-03T03:40:53.436Z,0.50
2019-03-03T03:43:52.243Z,0.30
2019-03-03T03:46:39.228Z,0.60
2019-03-03T03:49:35.204Z,0.50
2019-03-03T03:52:37.347Z,0.47
2019-03-03T03:55:33.678Z,0.60
2019-03-03T03:58:29.440Z,0.50
2019-03-03T04:01:14.969Z,0.73
2019-03-03T04:04:02.088Z,1.27
2019-03-03T04:06:54.713Z,0.30
2019-03-03T04:09:42.741Z,0.43
2019-03-03T04:12:29.967Z,0.50
2019-03-03T04:15:14.936Z,0.50
2019-03-03T04:17:51.595Z,0.73
2019-03-03T04:20:26.543Z,0.33
2019-03-03T04:23:13.690Z,0.50
2019-03-03T04:25:59.211Z,0.30
2019-03-03T04:28:46.318Z,0.43
2019-03-03T04:31:20.660Z,0.40
2019-03-03T04:33:54.380Z,0.40
2019-03-03T04:36:41.292Z,0.53
2019-03-03T04:39:26.864Z,0.50
2019-03-03T04:42:19.568Z,0.70
2019-03-03T04:44:54.767Z,0.50
2019-03-03T04:47:41.816Z,0.87
2019-03-03T04:50:24.459Z,0.73
2019-03-03T04:53:02.502Z,0.40
2019-03-03T04:55:46.076Z,0.60
2019-03-03T04:58:36.013Z,0.40
2019-03-03T05:01:25.668Z,1.37
2019-03-03T05:04:06.484Z,1.07
2019-03-03T05:06:58.696Z,0.57
2019-03-03T05:09:54.339Z,0.80
2019-03-03T05:12:57.223Z,0.43
2019-03-03T05:15:46.939Z,1.53
2019-03-03T05:18:28.908Z,0.40
2019-03-03T05:20:56.917Z,2.03
2019-03-03T05:23:24.897Z,1.00
2019-03-03T05:25:52.903Z,0.50
2019-03-03T05:28:20.919Z,0.43
2019-03-03T05:30:48.920Z,0.70
2019-03-03T05:33:16.900Z,1.80
2019-03-03T05:35:44.901Z,0.50
2019-03-03T05:38:13.380Z,0.50
2019-03-03T05:40:41.372Z,0.70
2019-03-03T05:43:09.288Z,0.40
2019-03-03T05:45:37.195Z,0.83
2019-03-03T05:48:05.179Z,0.30
2019-03-03T05:50:33.122Z,0.30
2019-03-03T05:53:01.121Z,0.63
2019-03-03T05:55:29.059Z,0.47
2019-03-03T05:57:56.977Z,0.30
2019-03-03T06:00:24.895Z,0.97
2019-03-03T06:02:52.824Z,0.50
2019-03-03T06:05:20.744Z,0.20
2019-03-03T06:07:48.658Z,0.20
2019-03-03T06:10:16.551Z,0.47
2019-03-03T06:12:44.465Z,0.27
2019-03-03T06:15:12.849Z,0.53
2019-03-03T06:17:40.855Z,0.23
2019-03-03T06:20:09.271Z,0.20
2019-03-03T06:22:37.210Z,0.77
2019-03-03T06:25:05.398Z,1.00
2019-03-03T06:27:33.381Z,0.30
2019-03-03T06:30:01.296Z,0.63
2019-03-03T06:32:29.215Z,0.87
2019-03-03T06:34:57.217Z,0.73
2019-03-03T06:37:25.144Z,1.43
2019-03-03T06:39:53.067Z,0.73
2019-03-03T06:42:21.004Z,0.47
2019-03-03T06:44:48.989Z,1.67
2019-03-03T06:47:16.921Z,0.43
2019-03-03T06:49:44.932Z,1.10
2019-03-03T06:52:12.926Z,1.40
2019-03-03T06:54:40.915Z,0.77
2019-03-03T06:57:08.895Z,1.23
2019-03-03T06:59:36.868Z,0.60
2019-03-03T07:02:04.763Z,0.60
2019-03-03T07:04:32.714Z,1.03
2019-03-03T07:07:00.787Z,0.53
2019-03-03T07:09:28.691Z,0.47
2019-03-03T07:11:56.647Z,0.50
2019-03-03T07:14:24.575Z,0.57
2019-03-03T07:16:52.620Z,0.60
2019-03-03T07:19:20.542Z,1.33
2019-03-03T07:21:48.486Z,2.17
2019-03-03T07:24:16.456Z,1.40
2019-03-03T07:26:44.369Z,1.40
2019-03-03T07:29:12.263Z,1.53
2019-03-03T07:31:40.163Z,0.80
2019-03-03T07:34:08.092Z,2.20
2019-03-03T07:36:35.987Z,0.60
2019-03-03T07:39:05.436Z,0.67
2019-03-03T07:41:33.329Z,1.33
2019-03-03T07:44:01.219Z,3.53
2019-03-03T07:46:29.175Z,0.83
2019-03-03T07:48:57.111Z,1.13
2019-03-03T07:51:24.999Z,2.23
2019-03-03T07:53:52.919Z,0.80
2019-03-03T07:56:21.799Z,0.80
2019-03-03T07:58:49.691Z,0.63
2019-03-03T08:01:17.716Z,1.23
2019-03-03T08:03:45.693Z,0.93
2019-03-03T08:06:13.778Z,0.80
2019-03-03T08:08:41.752Z,0.60
2019-03-03T08:11:09.760Z,2.17
2019-03-03T08:13:37.727Z,2.00
2019-03-03T08:16:05.628Z,1.57
2019-03-03T08:18:33.536Z,0.60
2019-03-03T08:21:01.448Z,1.03
2019-03-03T08:23:29.401Z,0.70
2019-03-03T08:25:57.981Z,1.50
2019-03-03T08:28:25.883Z,1.60
2019-03-03T08:30:53.768Z,0.60
2019-03-03T08:33:21.672Z,0.40
2019-03-03T08:35:49.584Z,1.03
2019-03-03T08:38:17.489Z,1.23
2019-03-03T08:40:45.412Z,1.17
2019-03-03T08:43:23.428Z,0.70
2019-03-03T08:46:10.339Z,1.07
2019-03-03T08:48:57.515Z,0.80
2019-03-03T08:51:47.167Z,0.50
2019-03-03T08:54:34.075Z,0.30
2019-03-03T08:57:26.748Z,1.67
2019-03-03T09:00:00.963Z,0.53
2019-03-03T09:02:56.744Z,0.83
2019-03-03T09:05:40.339Z,1.00
2019-03-03T09:08:35.240Z,0.97
2019-03-03T09:11:20.679Z,2.70
2019-03-03T09:14:06.036Z,1.50
2019-03-03T09:16:46.036Z,0.83
2019-03-03T09:19:35.632Z,1.13
2019-03-03T09:22:25.411Z,1.23
2019-03-03T09:25:27.554Z,1.97
2019-03-03T09:28:12.894Z,0.27
2019-03-03T09:30:58.351Z,0.57
2019-03-03T09:33:49.477Z,0.97
2019-03-03T09:36:46.055Z,0.60
2019-03-03T09:39:27.268Z,0.80
2019-03-03T09:42:12.741Z,1.00
2019-03-03T09:44:46.943Z,1.57
2019-03-03T09:47:28.447Z,1.40
2019-03-03T09:50:13.688Z,0.93
2019-03-03T09:52:59.016Z,0.70
2019-03-03T09:55:36.367Z,0.60
2019-03-03T09:58:20.923Z,0.60
2019-03-03T10:00:59.972Z,1.37
2019-03-03T10:03:46.938Z,0.97
2019-03-03T10:06:33.887Z,0.50
2019-03-03T10:09:32.723Z,0.80
2019-03-03T10:12:28.588Z,1.20
2019-03-03T10:15:15.493Z,0.90
2019-03-03T10:18:02.868Z,1.37
2019-03-03T10:20:49.799Z,0.80
2019-03-03T10:23:27.431Z,0.40
2019-03-03T10:26:17.147Z,0.70
2019-03-03T10:29:02.717Z,0.70
2019-03-03T10:31:52.381Z,0.40
2019-03-03T10:34:30.376Z,0.73
2019-03-03T10:37:26.186Z,0.70
2019-03-03T10:40:18.807Z,1.50
2019-03-03T10:43:04.324Z,0.43
2019-03-03T10:45:45.700Z,0.33
2019-03-03T10:48:35.432Z,1.30
2019-03-03T10:51:20.998Z,0.50
2019-03-03T10:53:54.662Z,0.30
2019-03-03T10:56:36.801Z,2.53
2019-03-03T10:59:30.961Z,0.70
2019-03-03T11:02:17.904Z,1.10
2019-03-03T11:05:07.491Z,0.30
2019-03-03T11:07:52.949Z,0.83
2019-03-03T11:10:46.096Z,0.37
2019-03-03T11:13:30.331Z,0.40
2019-03-03T11:16:35.188Z,0.17
2019-03-03T11:19:27.908Z,0.87
2019-03-03T11:22:29.827Z,0.30
2019-03-03T11:25:03.592Z,1.37
2019-03-03T11:27:49.560Z,0.50
2019-03-03T11:30:42.089Z,0.70
2019-03-03T11:33:27.445Z,0.30
2019-03-03T11:36:04.817Z,1.13
2019-03-03T11:38:54.603Z,0.80
2019-03-03T11:41:27.844Z,0.50
2019-03-03T11:44:11.411Z,0.40
2019-03-03T11:46:49.392Z,0.37
2019-03-03T11:49:42.110Z,0.20
2019-03-03T11:52:40.927Z,0.10
2019-03-03T11:55:18.663Z,0.20
2019-03-03T11:57:53.471Z,0.20
2019-03-03T12:00:53.119Z,0.20
2019-03-03T12:03:40.052Z,0.77
2019-03-03T12:06:23.518Z,0.10
2019-03-03T12:09:09.005Z,0.30
2019-03-03T12:11:43.852Z,0.20
2019-03-03T12:14:31.555Z,0.20
2019-03-03T12:17:17.303Z,0.83
2019-03-03T12:20:07.084Z,1.07
2019-03-03T12:23:05.940Z,0.73
2019-03-03T12:26:10.840Z,0.33
2019-03-03T12:29:06.636Z,0.30
2019-03-03T12:32:05.568Z,0.50
2019-03-03T12:34:48.591Z,0.50
2019-03-03T12:37:34.068Z,0.70
2019-03-03T12:40:25.383Z,0.20
2019-03-03T12:42:58.463Z,2.23
2019-03-03T12:45:39.000Z,0.50
2019-03-03T12:48:34.690Z,0.20
2019-03-03T12:51:24.296Z,0.50
2019-03-03T12:54:09.786Z,0.80
2019-03-03T12:56:59.690Z,0.67
2019-03-03T12:59:49.088Z,0.90
2019-03-03T13:02:44.820Z,0.40
2019-03-03T13:05:30.183Z,0.43
2019-03-03T13:08:07.872Z,1.23
2019-03-03T13:10:53.205Z,0.20
2019-03-03T13:13:33.272Z,1.33
2019-03-03T13:16:20.200Z,0.50
2019-03-03T13:19:12.938Z,0.50
2019-03-03T13:22:02.651Z,1.30
2019-03-03T13:24:38.379Z,0.47
2019-03-03T13:27:14.446Z,0.83
2019-03-03T13:29:55.097Z,0.57
2019-03-03T13:32:53.933Z,0.63
2019-03-03T13:35:43.578Z,0.80
2019-03-03T13:38:39.293Z,0.90
2019-03-03T13:41:22.203Z,0.80
2019-03-03T13:43:50.106Z,1.00
2019-03-03T13:46:18.071Z,1.10
2019-03-03T13:48:46.011Z,0.90
2019-03-03T13:51:13.908Z,1.40
2019-03-03T13:53:41.989Z,0.93
2019-03-03T13:56:09.920Z,1.03
2019-03-03T13:58:37.991Z,0.70
2019-03-03T14:01:06.130Z,0.60
2019-03-03T14:03:34.121Z,0.23
2019-03-03T14:06:02.094Z,0.47
2019-03-03T14:08:30.004Z,1.23
2019-03-03T14:10:57.987Z,0.37
2019-03-03T14:13:25.972Z,0.93
2019-03-03T14:15:53.953Z,0.37
2019-03-03T14:18:21.888Z,0.67
2019-03-03T14:20:49.883Z,0.30
2019-03-03T14:23:17.841Z,0.30
2019-03-03T14:25:45.739Z,0.50
2019-03-03T14:28:13.645Z,0.47
2019-03-03T14:30:41.561Z,0.20
2019-03-03T14:33:09.564Z,2.33
2019-03-03T14:35:37.482Z,0.40
2019-03-03T14:38:05.396Z,0.40
2019-03-03T14:40:33.292Z,0.53
2019-03-03T14:43:01.239Z,0.50
2019-03-03T14:45:29.155Z,0.50
2019-03-03T14:47:57.239Z,0.60
2019-03-03T14:50:25.203Z,0.40
2019-03-03T14:52:53.104Z,0.87
2019-03-03T14:55:21.028Z,0.30
2019-03-03T14:57:49.043Z,0.80
2019-03-03T15:00:23.539Z,0.40
2019-03-03T15:02:51.680Z,0.33
2019-03-03T15:05:19.643Z,0.50
2019-03-03T15:07:47.643Z,0.63
2019-03-03T15:10:15.639Z,0.73
2019-03-03T15:12:43.544Z,0.80
2019-03-03T15:15:11.624Z,0.53
2019-03-03T15:17:39.727Z,1.20
2019-03-03T15:20:07.754Z,0.63
2019-03-03T15:22:35.671Z,0.40
2019-03-03T15:25:03.567Z,0.33
2019-03-03T15:27:31.649Z,0.63
2019-03-03T15:29:59.584Z,1.90
2019-03-03T15:32:27.500Z,0.60
2019-03-03T15:34:55.511Z,0.43
2019-03-03T15:37:23.518Z,1.17
2019-03-03T15:39:51.484Z,0.60
2019-03-03T15:42:19.392Z,1.00
2019-03-03T15:44:47.385Z,0.63
2019-03-03T15:47:15.484Z,0.70
2019-03-03T15:49:43.492Z,0.80
2019-03-03T15:52:11.489Z,0.73
2019-03-03T15:54:39.460Z,1.20
2019-03-03T15:57:07.440Z,0.87
2019-03-03T15:59:35.418Z,0.40
2019-03-03T16:02:03.716Z,0.83
2019-03-03T16:04:31.637Z,0.63
2019-03-03T16:06:59.627Z,1.33
2019-03-03T16:09:27.861Z,1.17
2019-03-03T16:11:55.785Z,1.37
2019-03-03T16:14:24.641Z,1.07
2019-03-03T16:16:52.680Z,0.60
2019-03-03T16:19:20.563Z,0.60
2019-03-03T16:21:48.460Z,0.97
2019-03-03T16:24:16.373Z,0.80
2019-03-03T16:26:44.328Z,1.00
2019-03-03T16:29:12.268Z,1.70
2019-03-03T16:31:40.240Z,2.60
2019-03-03T16:34:08.155Z,1.03
2019-03-03T16:36:36.067Z,1.93
2019-03-03T16:39:04.596Z,0.60
2019-03-03T16:41:32.508Z,0.70
2019-03-03T16:44:00.423Z,1.27
2019-03-03T16:46:28.356Z,0.80
2019-03-03T16:48:56.353Z,0.60
2019-03-03T16:51:26.731Z,1.70
2019-03-03T16:53:54.722Z,0.97
2019-03-03T16:56:22.691Z,0.90
2019-03-03T16:58:50.738Z,1.60
2019-03-03T17:01:18.723Z,0.70
2019-03-03T17:03:46.644Z,0.60
2019-03-03T17:06:14.931Z,1.13
2019-03-03T17:08:42.906Z,0.77
2019-03-03T17:11:10.993Z,0.50
2019-03-03T17:13:39.050Z,0.60
2019-03-03T17:16:07.079Z,2.03
2019-03-03T17:18:35.120Z,0.87
2019-03-03T17:21:03.123Z,1.00
2019-03-03T17:23:31.091Z,2.50
2019-03-03T17:25:59.052Z,3.87
2019-03-03T17:28:27.023Z,1.03
2019-03-03T17:30:54.940Z,1.13
2019-03-03T17:33:22.899Z,1.17
2019-03-03T17:35:50.943Z,0.97
2019-03-03T17:38:18.968Z,1.13
2019-03-03T17:40:46.924Z,1.70
2019-03-03T17:43:15.097Z,0.80
2019-03-03T17:45:42.994Z,2.07
2019-03-03T17:48:10.929Z,1.03
2019-03-03T17:50:38.874Z,1.33
2019-03-03T17:53:06.885Z,2.13
2019-03-03T17:55:34.771Z,1.33
2019-03-03T17:58:03.041Z,0.90
2019-03-03T18:00:31.862Z,2.10
2019-03-03T18:02:59.802Z,0.97
2019-03-03T18:05:27.749Z,0.93
2019-03-03T18:07:55.689Z,1.53
2019-03-03T18:10:23.947Z,0.83
2019-03-03T18:12:51.960Z,0.80
2019-03-03T18:15:20.000Z,1.70
2019-03-03T18:17:50.220Z,2.13
2019-03-03T18:20:17.734Z,2.97
2019-03-03T18:22:45.724Z,1.30
2019-03-03T18:25:14.292Z,1.33
2019-03-03T18:27:42.309Z,1.03
2019-03-03T18:30:12.216Z,1.50
2019-03-03T18:32:40.158Z,1.00
2019-03-03T18:35:08.236Z,0.77
2019-03-03T18:37:36.263Z,1.00
2019-03-03T18:40:04.516Z,1.47
2019-03-03T18:42:32.945Z,1.00
2019-03-03T18:45:00.920Z,3.37
2019-03-03T18:47:28.949Z,2.50
2019-03-03T18:49:56.891Z,0.80
2019-03-03T18:52:24.877Z,1.63
2019-03-03T18:54:52.866Z,1.27
2019-03-03T18:57:22.327Z,0.90
2019-03-03T18:59:50.352Z,1.63
2019-03-03T19:02:18.299Z,0.80
2019-03-03T19:04:46.297Z,1.23
2019-03-03T19:07:14.346Z,1.17
2019-03-03T19:09:42.948Z,1.03
2019-03-03T19:12:12.049Z,2.33
2019-03-03T19:14:40.280Z,1.10
2019-03-03T19:17:08.343Z,1.57
2019-03-03T19:19:36.794Z,2.50
2019-03-03T19:22:04.974Z,2.00
2019-03-03T19:24:33.097Z,1.77
2019-03-03T19:27:01.085Z,2.90
2019-03-03T19:29:29.137Z,2.33
2019-03-03T19:31:57.228Z,1.13
2019-03-03T19:34:25.244Z,1.20
2019-03-03T19:36:53.312Z,1.80
2019-03-03T19:39:21.278Z,2.27
2019-03-03T19:41:49.388Z,2.33
2019-03-03T19:44:17.394Z,2.97
2019-03-03T19:46:45.508Z,1.50
2019-03-03T19:49:13.605Z,1.80
2019-03-03T19:51:41.563Z,2.73
2019-03-03T19:54:09.515Z,1.30
2019-03-03T19:56:37.950Z,1.00
2019-03-03T19:59:06.021Z,1.87
2019-03-03T20:01:34.152Z,1.47
2019-03-03T20:04:02.268Z,1.83
2019-03-03T20:06:30.356Z,1.70
2019-03-03T20:08:58.468Z,1.27
2019-03-03T20:11:26.638Z,2.13
2019-03-03T20:13:56.174Z,1.10
2019-03-03T20:16:24.338Z,1.10
2019-03-03T20:18:52.448Z,2.70
2019-03-03T20:21:20.540Z,1.13
2019-03-03T20:23:48.596Z,2.80
2019-03-03T20:26:16.806Z,2.70
2019-03-03T20:28:45.056Z,3.43
2019-03-03T20:31:13.132Z,3.47
2019-03-03T20:33:42.989Z,1.33
2019-03-03T20:36:11.125Z,2.70
2019-03-03T20:38:39.216Z,0.87
2019-03-03T20:41:07.296Z,1.30
2019-03-03T20:43:35.388Z,1.27
2019-03-03T20:46:03.379Z,1.90
2019-03-03T20:48:31.408Z,1.60
2019-03-03T20:50:59.529Z,2.03
2019-03-03T20:53:27.582Z,1.63
2019-03-03T20:55:55.748Z,1.10
2019-03-03T20:58:23.841Z,1.53
2019-03-03T21:00:51.886Z,1.00
2019-03-03T21:03:21.689Z,1.37
2019-03-03T21:05:49.807Z,2.40
2019-03-03T21:08:18.073Z,2.20
2019-03-03T21:11:02.222Z,2.63
2019-03-03T21:13:30.899Z,1.60
2019-03-03T21:15:58.932Z,1.30
2019-03-03T21:18:27.413Z,1.63
2019-03-03T21:20:55.921Z,1.40
2019-03-03T21:23:24.013Z,1.47
2019-03-03T21:25:53.713Z,1.97
2019-03-03T21:28:21.902Z,2.00
2019-03-03T21:30:53.112Z,2.30
2019-03-03T21:33:21.901Z,1.27
2019-03-03T21:35:49.960Z,1.23
2019-03-03T21:38:18.585Z,1.93
2019-03-03T21:40:47.446Z,3.17
2019-03-03T21:43:15.360Z,1.53
2019-03-03T21:45:44.525Z,1.40
2019-03-03T21:48:14.641Z,1.10
2019-03-03T21:50:44.240Z,1.30
2019-03-03T21:53:12.229Z,1.83
2019-03-03T21:55:40.149Z,12.60
2019-03-03T21:58:08.067Z,1.00
2019-03-03T22:00:36.881Z,2.00
2019-03-03T22:03:04.905Z,2.20
2019-03-03T22:05:32.930Z,1.90
2019-03-03T22:08:00.997Z,2.03
2019-03-03T22:10:32.834Z,3.20
2019-03-03T22:13:01.970Z,3.03
2019-03-03T22:15:30.279Z,1.30
2019-03-03T22:17:58.336Z,2.07
2019-03-03T22:20:26.379Z,2.10
2019-03-03T22:22:57.002Z,1.63
2019-03-03T22:25:26.636Z,1.97
2019-03-03T22:27:54.672Z,1.80
2019-03-03T22:30:22.600Z,2.70
2019-03-03T22:32:50.679Z,1.20
2019-03-03T22:35:19.819Z,2.37
2019-03-03T22:37:47.845Z,3.30
2019-03-03T22:40:15.840Z,1.30
2019-03-03T22:42:43.853Z,1.33
2019-03-03T22:45:12.562Z,1.57
2019-03-03T22:47:40.565Z,1.90
2019-03-03T22:50:09.039Z,1.20
2019-03-03T22:52:36.976Z,1.30
2019-03-03T22:55:05.659Z,2.60
2019-03-03T22:57:34.467Z,2.50
2019-03-03T23:00:02.440Z,2.67
2019-03-03T23:02:30.371Z,2.13
2019-03-03T23:05:19.008Z,2.27
2019-03-03T23:07:58.855Z,2.60
2019-03-03T23:10:36.776Z,2.43
2019-03-03T23:13:11.207Z,1.20
2019-03-03T23:15:58.333Z,1.00
2019-03-03T23:18:57.665Z,1.20
2019-03-03T23:21:47.717Z,1.33
2019-03-03T23:24:34.901Z,1.63
2019-03-03T23:27:02.907Z,3.70
2019-03-03T23:29:30.840Z,1.67
2019-03-03T23:31:58.774Z,1.40
2019-03-03T23:34:26.739Z,2.80
2019-03-03T23:36:54.716Z,1.90
2019-03-03T23:39:22.655Z,1.40
2019-03-03T23:41:50.636Z,3.13
2019-03-03T23:44:18.665Z,1.80
2019-03-03T23:46:46.655Z,2.83
2019-03-03T23:49:15.063Z,1.93
2019-03-03T23:51:43.008Z,1.73
2019-03-03T23:54:10.959Z,1.50
2019-03-03T23:56:38.927Z,3.80
2019-03-03T23:59:06.907Z,2.63
